Impacts TAF Board INFO
FOR SITUATIONAL AWARENESS. NOT TO BE USED FOR FLIGHT PLANNING PURPOSES.
IDs:

KBWI - Baltimore-Washington, MD, US

Issued at 0545 UTC 23 Feb 2018
Updated at 0623 UTC 23 Feb 2018
Potential Impact None Slight Moderate High
Time0554Z 23/07Z 23/08Z 23/09Z 23/10Z 23/11Z 23/12Z 23/13Z 23/14Z 23/15Z 23/16Z 23/17Z 23/18Z 23/19Z>>
Type OBS PRVL PRVL PRVL PRVL PRVL PRVL PRVL PRVL PRVL PRVL PRVL PRVL PRVL
VIS 10 3 3 2 2 2 1.5 1 1 1 1 1 1 1
CIG 9 8 8 8 8 8 8 3 3 3 3 3 3 3
Cover OVC OVC OVC OVC OVC OVC OVC OVC OVC OVC OVC OVC OVC OVC
FltCat IFR IFR IFR IFR IFR IFR IFR LIFR LIFR LIFR LIFR LIFR LIFR LIFR
WX -- -RA -DZ BR -RA -DZ BR -RA -DZ BR -RA -DZ BR -RA -DZ BR -RA BR -RA BR -RA BR -RA BR -RA BR -RA BR -RA BR -RA BR
WDir 80 80 80 70 70 70 80 80 80 80 80 80 80 80
WSpd 9 7 7 5 5 5 6 6 6 6 6 6 6 6
WGst -- -- -- -- -- -- -- -- -- -- -- -- -- --

Raw TAF
KBWI 230545Z 2306/2412 08007KT 3SM -RADZ BR OVC008
  FM230900 07005KT 2SM -RADZ BR OVC008
  FM231200 08006KT 1 1/2SM -RA BR OVC008
  FM231300 08006KT 1SM -RA BR OVC003
  FM232000 13004KT 1SM BR OVC003
  FM240300 20004KT 4SM BR OVC008


Raw METAR
KBWI 230554Z 08009KT 10SM BKN009 OVC014 04/04 A3060 RMK AO2 DZB24E35 SLP362 P0000 60000 T00440039 10061 20044 58001
KBWI 230539Z 08007KT 9SM BKN009 OVC014 04/04 A3061 RMK AO2 DZB24E35 P0000 T00440044
KBWI 230454Z 08008KT 7SM BKN014 OVC025 05/04 A3060 RMK AO2 SLP363 T00500039 401940050
KBWI 230354Z 08006KT 10SM OVC011 06/04 A3062 RMK AO2 SLP368 T00560044

METAR Board
Radar Display
Forecast Discussion

FOR SITUATIONAL AWARENESS. NOT TO BE USED FOR FLIGHT PLANNING PURPOSES.